Thursday, February 22, 2018, 12:09 PM EST
Back to Local

KABE, Lehigh Valley International Airport

Location: Allentown, PA, United States Lat: 40.65
Local Time: 12:09 PM EST (17:09 GMT) Lon: -75.45
Time Zone: US/Eastern Elev: 393 ft

Show me the last for .
Show Decoded

2018-02-22 11:51 METAR KABE 221651Z 06013KT 4SM -RA FEW016 OVC026 04/01 A3055 RMK AO2 SLP348
                 P0002 T00440011 =
2018-02-22 10:51 METAR KABE 221551Z 08011KT 5SM RA BKN029 OVC048 06/02 A3056 RMK AO2 RAB30 SLP349
                 P0001 T00610017 =
2018-02-22 09:51 METAR KABE 221451Z 01008KT 10SM OVC050 06/01 A3060 RMK AO2 RAE06 PRESRR SLP364
                 P0000 60002 T00610011 53014 =
2018-02-22 08:51 METAR KABE 221351Z 05013KT 10SM -RA BKN040 OVC050 06/02 A3057 RMK AO2 RAB1253
                 SLP353 P0002 T00610017 =
2018-02-22 07:51 METAR KABE 221251Z 02007KT 10SM OVC048 06/03 A3056 RMK AO2 RAB02E35 SLP350 P0000
                 T00610028 =
2018-02-22 06:51 METAR KABE 221151Z 01007KT 10SM OVC050 07/03 A3056 RMK AO2 RAB24E47 PRESRR
                 SLP349 P0003 60007 70008 T00670028 10111 20067 53019 =
2018-02-22 05:51 METAR KABE 221051Z 08008KT 10SM OVC045 07/03 A3052 RMK AO2 SLP335 T00720028 =
2018-02-22 04:51 METAR KABE 220951Z 06006KT 10SM OVC042 07/03 A3052 RMK AO2 SLP335 T00720028 =
2018-02-22 03:51 METAR KABE 220851Z 06008KT 10SM OVC039 07/03 A3050 RMK AO2 RAE42 SLP329 P0004
                 60004 T00720028 51014 =
2018-02-22 02:51 METAR KABE 220751Z 33006KT 6SM RA OVC043 08/02 A3050 RMK AO2 RAB36 SLP327 P0000
                 T00830022 =
2018-02-22 01:51 METAR KABE 220651Z 03004KT 10SM OVC044 11/00 A3048 RMK AO2 SLP319 T01060000 =
2018-02-22 00:51 METAR KABE 220551Z 34005KT 10SM OVC043 11/02 A3046 RMK AO2 RAB30E39 SLP314 P0000
                 60001 T01110017 10183 20106 51019 =
2018-02-21 23:51 METAR KABE 220451Z 34007KT 10SM OVC043 12/04 A3045 RMK AO2 SLP310 T01170039
                 402720044 =
2018-02-21 22:51 METAR KABE 220351Z 35007KT 10SM BKN045 OVC110 12/06 A3042 RMK AO2 SLP302
                 T01170061 =
2018-02-21 21:51 METAR KABE 220251Z 34006KT 10SM OVC050 13/08 A3041 RMK AO2 SLP297 60001
                 T01330078 51037 =
2018-02-21 20:51 METAR KABE 220151Z 35008KT 10SM BKN045 OVC060 14/09 A3039 RMK AO2 RAE0056 SLP292
                 P0000 T01390089 =
2018-02-21 19:51 METAR KABE 220051Z 36007KT 10SM -RA OVC040 16/11 A3036 RMK AO2 SLP280 P0001
                 T01610111 =
2018-02-21 18:51 METAR KABE 212351Z 35016KT 10SM -RA FEW039 BKN047 OVC075 19/13 A3030 RMK AO2 LTG
                 DSNT SW RAB15 SLP259 P0000 60000 T01890128 10272 20189 53030 =
2018-02-21 17:51 METAR KABE 212251Z 22004KT 10SM BKN065 OVC080 24/14 A3022 RMK AO2 SLP233
                 T02390139 =
2018-02-21 16:51 METAR KABE 212151Z 24008KT 10SM BKN070 BKN085 26/14 A3021 RMK AO2 SLP229
                 T02560139 =
2018-02-21 15:51 METAR KABE 212051Z 24012KT 10SM SCT055 BKN110 27/14 A3021 RMK AO2 SLP228
                 T02670139 56009 =
2018-02-21 14:51 METAR KABE 211951Z 26016G21KT 10SM CLR 27/14 A3021 RMK AO2 SLP229 T02670144 =
2018-02-21 13:51 METAR KABE 211851Z 29006KT 10SM BKN085 24/15 A3021 RMK AO2 SLP231 T02440150 =
2018-02-21 12:51 METAR KABE 211751Z 26009KT 10SM FEW070 SCT090 24/14 A3024 RMK AO2 SLP238
                 T02390144 10239 20061 58023 =

Support USWX by starting your Amazon purchase here.